Time;durP1;ratioP1;P1;durP2;ratioP2;P2;SDS_P1;SDS_P2;PMS_P1;PMS_P2;Temp;Humidity;BMP_temperature;BMP_pressure;BME280_temperature;BME280_humidity;BME280_pressure;Samples;Min_cycle;Max_cycle;Signal;HPM_P1;HPM_P2
2022/04/13 00:02:05;;;;;;;7.00;2.50;;;17.30;54.80;;;;;;5133194;28;20024;-67
2022/04/13 00:04:30;;;;;;;5.70;2.83;;;17.30;55.30;;;;;;5134322;28;20054;-67
2022/04/13 00:06:57;;;;;;;8.68;2.95;;;17.20;55.00;;;;;;5134129;28;20088;-67
2022/04/13 00:09:23;;;;;;;5.57;3.40;;;17.20;54.90;;;;;;5134075;28;20035;-68
2022/04/13 00:11:50;;;;;;;9.70;3.17;;;17.20;55.10;;;;;;5134060;28;20020;-67
2022/04/13 00:14:15;;;;;;;8.05;3.45;;;17.10;55.10;;;;;;5134047;28;20043;-67
2022/04/13 00:16:42;;;;;;;8.60;3.05;;;17.10;54.70;;;;;;5134118;28;20030;-67
2022/04/13 00:19:08;;;;;;;7.25;3.13;;;16.90;55.10;;;;;;5133982;28;20023;-68
2022/04/13 00:21:33;;;;;;;5.32;3.10;;;16.90;55.40;;;;;;5133929;28;20023;-68
2022/04/13 00:23:59;;;;;;;7.07;3.33;;;16.80;55.80;;;;;;5133932;28;20040;-67
2022/04/13 00:26:25;;;;;;;10.40;3.30;;;16.90;55.80;;;;;;5133877;28;20035;-68
2022/04/13 00:28:50;;;;;;;6.65;3.65;;;16.90;55.90;;;;;;5133809;28;20050;-68
2022/04/13 00:31:16;;;;;;;6.90;2.97;;;16.90;55.90;;;;;;5133746;28;20039;-67
2022/04/13 00:33:41;;;;;;;8.48;3.38;;;16.90;56.00;;;;;;5133817;28;20091;-67
2022/04/13 00:36:07;;;;;;;15.77;3.15;;;16.90;55.80;;;;;;5133774;28;20028;-67
2022/04/13 00:38:33;;;;;;;10.00;3.38;;;16.90;55.50;;;;;;5133749;28;20020;-67
2022/04/13 00:40:59;;;;;;;7.18;3.08;;;16.90;55.60;;;;;;5133615;28;20034;-68
2022/04/13 00:43:25;;;;;;;6.55;3.60;;;16.90;55.50;;;;;;5133730;28;20047;-68
2022/04/13 00:45:51;;;;;;;10.02;3.30;;;16.90;55.30;;;;;;5133729;28;20038;-67
2022/04/13 00:48:36;;;;;;;6.78;3.00;;;16.90;55.10;;;;;;5133708;28;20028;-67
2022/04/13 00:51:02;;;;;;;7.28;2.92;;;16.90;55.10;;;;;;5133631;28;20500;-68
2022/04/13 00:53:30;;;;;;;8.70;3.33;;;16.90;54.80;;;;;;5133674;28;20051;-67
2022/04/13 00:55:57;;;;;;;7.03;3.20;;;16.90;54.80;;;;;;5137811;28;20023;-67
2022/04/13 00:58:26;;;;;;;9.93;3.60;;;16.80;54.90;;;;;;5137722;28;20020;-67
2022/04/13 01:00:53;;;;;;;11.13;3.50;;;16.70;55.00;;;;;;5137730;28;20107;-68
2022/04/13 01:03:21;;;;;;;7.95;3.53;;;16.60;55.50;;;;;;5137594;28;20035;-68
2022/04/13 01:05:48;;;;;;;7.85;3.42;;;16.40;56.10;;;;;;5137621;28;20031;-69
2022/04/13 01:08:17;;;;;;;9.80;3.50;;;16.30;56.30;;;;;;5137578;28;20027;-69
2022/04/13 01:10:44;;;;;;;7.30;3.78;;;16.30;57.30;;;;;;5137473;28;20081;-69
2022/04/13 01:13:10;;;;;;;9.02;3.47;;;16.40;56.60;;;;;;5137492;28;20011;-69
2022/04/13 01:15:36;;;;;;;8.52;3.45;;;16.40;56.60;;;;;;5137410;28;20024;-68
2022/04/13 01:18:03;;;;;;;9.50;3.67;;;16.40;56.50;;;;;;5137385;28;20087;-68
2022/04/13 01:20:29;;;;;;;5.82;3.47;;;16.40;56.60;;;;;;5137319;28;20047;-69
2022/04/13 01:22:55;;;;;;;6.75;3.28;;;16.40;56.50;;;;;;5137309;28;20024;-68
2022/04/13 01:25:20;;;;;;;6.68;3.55;;;16.30;56.60;;;;;;5137198;28;20031;-69
2022/04/13 01:27:46;;;;;;;7.68;4.40;;;16.40;56.60;;;;;;5137101;28;20031;-69
2022/04/13 01:30:13;;;;;;;9.35;3.97;;;16.40;56.70;;;;;;5136060;28;20035;-69
2022/04/13 01:32:48;;;;;;;7.95;3.72;;;16.30;56.80;;;;;;5137159;28;20023;-68
2022/04/13 01:35:16;;;;;;;8.73;4.07;;;16.30;56.80;;;;;;5137148;28;20381;-68
2022/04/13 01:37:42;;;;;;;6.35;3.83;;;16.30;56.90;;;;;;5137099;28;20038;-69
2022/04/13 01:40:11;;;;;;;12.18;3.88;;;16.30;56.70;;;;;;5137004;28;20027;-68
2022/04/13 01:42:37;;;;;;;8.68;4.05;;;16.30;56.80;;;;;;5136736;28;20051;-69
2022/04/13 01:45:21;;;;;;;;;;;;;;;;;;;;;
2022/04/13 01:47:54;;;;;;;7.28;3.60;;;16.30;56.90;;;;;;5121129;28;20051;-68
2022/04/13 01:50:23;;;;;;;12.15;4.18;;;16.30;57.10;;;;;;5136708;28;20023;-68
2022/04/13 01:52:49;;;;;;;8.05;3.92;;;16.30;57.10;;;;;;5136809;28;20080;-69
2022/04/13 01:55:15;;;;;;;6.75;4.20;;;16.30;57.20;;;;;;5136644;28;20020;-69
2022/04/13 01:57:42;;;;;;;8.18;3.70;;;16.30;57.20;;;;;;5135633;28;20436;-68
2022/04/13 02:00:10;;;;;;;7.05;4.00;;;16.30;57.40;;;;;;5136614;28;20034;-68
2022/04/13 02:02:37;;;;;;;9.82;4.20;;;16.30;57.50;;;;;;5136449;28;20060;-68
2022/04/13 02:05:03;;;;;;;9.85;4.20;;;16.20;57.50;;;;;;5135808;28;20020;-68
2022/04/13 02:07:29;;;;;;;9.10;3.83;;;16.30;57.50;;;;;;5135721;28;20028;-68
2022/04/13 02:09:55;;;;;;;12.73;4.00;;;16.30;57.70;;;;;;5136288;28;20039;-68
2022/04/13 02:12:22;;;;;;;9.80;3.90;;;16.30;58.60;;;;;;5136358;28;20055;-68
2022/04/13 02:14:47;;;;;;;8.13;3.90;;;16.20;57.60;;;;;;5136285;28;20023;-68
2022/04/13 02:17:16;;;;;;;9.07;5.03;;;16.20;57.70;;;;;;5136188;28;20024;-68
2022/04/13 02:19:43;;;;;;;10.77;4.15;;;16.20;57.80;;;;;;5136175;28;20023;-68
2022/04/13 02:22:09;;;;;;;9.43;4.05;;;16.20;58.10;;;;;;5136203;28;20028;-67
2022/04/13 02:24:35;;;;;;;10.80;4.25;;;16.20;58.10;;;;;;5136268;28;20024;-67
2022/04/13 02:27:02;;;;;;;10.55;5.03;;;16.20;58.30;;;;;;5136064;28;20026;-67
2022/04/13 02:29:28;;;;;;;9.65;4.65;;;16.20;58.80;;;;;;5135875;28;20063;-68
2022/04/13 02:31:54;;;;;;;9.60;5.03;;;16.20;58.90;;;;;;5135930;28;20016;-67
2022/04/13 02:34:19;;;;;;;8.65;4.80;;;16.20;59.10;;;;;;5135860;28;20020;-67
2022/04/13 02:36:45;;;;;;;9.75;5.10;;;16.20;59.40;;;;;;5135856;28;20116;-67
2022/04/13 02:39:11;;;;;;;10.35;5.20;;;16.10;59.50;;;;;;5135792;28;20020;-67
2022/04/13 02:41:36;;;;;;;7.78;4.63;;;16.10;59.80;;;;;;5135464;28;20062;-67
2022/04/13 02:44:02;;;;;;;9.27;4.90;;;16.10;59.70;;;;;;5135753;28;20028;-68
2022/04/13 02:46:28;;;;;;;8.90;5.25;;;16.10;59.60;;;;;;5135673;28;20051;-68
2022/04/13 02:48:53;;;;;;;8.77;5.07;;;16.10;59.30;;;;;;5135605;28;20392;-68
2022/04/13 02:51:19;;;;;;;10.43;5.05;;;16.10;59.70;;;;;;5135496;28;20023;-68
2022/04/13 02:53:45;;;;;;;10.35;4.97;;;16.10;59.70;;;;;;5135467;28;20032;-67
2022/04/13 02:56:10;;;;;;;10.93;4.63;;;16.10;60.70;;;;;;5135437;28;20023;-68
2022/04/13 02:58:36;;;;;;;6.65;4.93;;;16.10;59.70;;;;;;5135383;28;20032;-68
2022/04/13 03:01:03;;;;;;;7.68;4.72;;;16.10;59.80;;;;;;5135356;28;20034;-67
2022/04/13 03:03:29;;;;;;;9.70;5.22;;;16.10;59.90;;;;;;5135360;28;20047;-67
2022/04/13 03:05:55;;;;;;;9.75;5.20;;;16.10;60.00;;;;;;5135263;28;20020;-68
2022/04/13 03:08:21;;;;;;;8.32;5.43;;;16.10;60.30;;;;;;5135197;28;20058;-68
2022/04/13 03:10:46;;;;;;;8.52;4.70;;;16.10;60.30;;;;;;5135094;28;20090;-68
2022/04/13 03:13:12;;;;;;;9.40;5.18;;;16.10;60.30;;;;;;5135138;28;20023;-68
2022/04/13 03:15:37;;;;;;;10.88;5.22;;;16.10;60.40;;;;;;5135045;28;20023;-68
2022/04/13 03:18:05;;;;;;;10.70;5.25;;;16.00;60.50;;;;;;5134633;28;20400;-68
2022/04/13 03:20:31;;;;;;;9.57;5.03;;;16.00;60.60;;;;;;5135017;28;20043;-67
2022/04/13 03:22:57;;;;;;;9.95;5.55;;;16.00;60.70;;;;;;5134965;28;20031;-68
2022/04/13 03:25:23;;;;;;;11.10;5.55;;;16.00;60.80;;;;;;5134888;28;20391;-67
2022/04/13 03:27:48;;;;;;;9.80;5.90;;;16.00;61.00;;;;;;5134811;28;20028;-68
2022/04/13 03:30:16;;;;;;;15.93;5.97;;;16.00;61.00;;;;;;5134731;28;20043;-68
2022/04/13 03:32:42;;;;;;;10.88;5.65;;;15.90;61.20;;;;;;5134789;28;20418;-68
2022/04/13 03:35:12;;;;;;;10.25;5.55;;;15.90;61.20;;;;;;5134768;28;20053;-68
2022/04/13 03:37:41;;;;;;;9.38;5.45;;;15.90;61.30;;;;;;5134686;28;20034;-68
2022/04/13 03:40:09;;;;;;;8.20;5.05;;;15.80;61.30;;;;;;5134586;28;20027;-67
2022/04/13 03:42:36;;;;;;;11.55;5.15;;;15.80;61.70;;;;;;5134366;28;20058;-67
2022/04/13 03:45:05;;;;;;;10.77;5.65;;;15.70;61.80;;;;;;5134521;28;20491;-68
2022/04/13 03:47:31;;;;;;;10.35;5.13;;;15.70;62.20;;;;;;5134489;28;20030;-67
2022/04/13 03:49:57;;;;;;;9.50;5.25;;;15.60;62.20;;;;;;5134363;28;20040;-67
2022/04/13 03:52:22;;;;;;;9.77;5.70;;;15.70;62.30;;;;;;5133313;28;20023;-67
2022/04/13 03:54:48;;;;;;;9.38;5.32;;;15.60;62.10;;;;;;5134100;28;20053;-67
2022/04/13 03:57:13;;;;;;;10.88;5.57;;;15.60;62.00;;;;;;5134331;28;20037;-67
2022/04/13 03:59:40;;;;;;;10.52;6.22;;;15.50;62.40;;;;;;5134236;28;20482;-68
2022/04/13 04:02:06;;;;;;;12.35;5.80;;;15.40;62.50;;;;;;5134230;28;20069;-68
2022/04/13 04:04:31;;;;;;;13.10;4.90;;;15.30;62.90;;;;;;5134373;28;20028;-67
2022/04/13 04:06:57;;;;;;;11.85;5.40;;;15.10;63.00;;;;;;5134170;28;20036;-68
2022/04/13 04:09:23;;;;;;;9.07;5.13;;;15.00;63.10;;;;;;5134134;28;20020;-68
2022/04/13 04:11:49;;;;;;;10.18;5.45;;;14.90;63.50;;;;;;5134084;28;20438;-68
2022/04/13 04:14:14;;;;;;;11.15;5.68;;;15.00;63.50;;;;;;5134231;28;20098;-68
2022/04/13 04:16:40;;;;;;;9.98;5.70;;;15.00;63.60;;;;;;5133992;28;20027;-67
2022/04/13 04:19:06;;;;;;;10.68;5.90;;;15.00;63.60;;;;;;5133985;28;20055;-68
2022/04/13 04:21:31;;;;;;;11.00;5.70;;;14.80;63.70;;;;;;5133942;28;20054;-67
2022/04/13 04:23:57;;;;;;;11.13;5.72;;;14.70;64.30;;;;;;5133912;28;20024;-67
2022/04/13 04:26:22;;;;;;;10.25;5.68;;;14.50;64.70;;;;;;5133896;28;20027;-67
2022/04/13 04:28:48;;;;;;;12.05;5.97;;;14.50;64.90;;;;;;5133140;28;20027;-67
2022/04/13 04:31:19;;;;;;;9.05;5.70;;;14.50;65.00;;;;;;5133746;28;20058;-68
2022/04/13 04:33:45;;;;;;;9.90;5.25;;;14.50;65.20;;;;;;5133898;28;20024;-67
2022/04/13 04:36:11;;;;;;;10.55;5.85;;;14.40;64.80;;;;;;5133798;28;20028;-67
2022/04/13 04:38:37;;;;;;;12.05;5.95;;;14.30;64.80;;;;;;5133804;28;20032;-68
2022/04/13 04:41:03;;;;;;;7.00;4.93;;;14.40;65.10;;;;;;5132983;28;20095;-68
2022/04/13 04:43:29;;;;;;;13.52;5.60;;;14.30;65.10;;;;;;5133508;28;20040;-68
2022/04/13 04:45:55;;;;;;;10.35;5.47;;;14.30;65.20;;;;;;5133638;28;20077;-68
2022/04/13 04:48:21;;;;;;;12.57;5.57;;;14.30;65.10;;;;;;5133630;28;20039;-68
2022/04/13 04:50:47;;;;;;;8.00;5.03;;;14.30;64.90;;;;;;5133668;28;20028;-67
2022/04/13 04:53:12;;;;;;;10.07;5.65;;;14.40;64.80;;;;;;5132671;28;20076;-68
2022/04/13 04:55:40;;;;;;;10.70;5.18;;;14.30;65.00;;;;;;5133651;28;20008;-68
2022/04/13 04:58:09;;;;;;;10.40;5.28;;;14.20;64.90;;;;;;5133790;28;20040;-68
2022/04/13 05:00:36;;;;;;;9.10;5.43;;;14.30;65.80;;;;;;5133570;28;20038;-67
2022/04/13 05:03:02;;;;;;;11.25;5.15;;;14.30;64.70;;;;;;5132525;28;20095;-68
2022/04/13 05:05:28;;;;;;;13.60;5.90;;;14.20;64.50;;;;;;5132534;28;20034;-68
2022/04/13 05:07:53;;;;;;;11.00;6.18;;;14.20;64.50;;;;;;5133458;28;20106;-68
2022/04/13 05:10:19;;;;;;;12.45;5.43;;;14.20;64.60;;;;;;5132367;28;20028;-68
2022/04/13 05:12:49;;;;;;;11.13;5.32;;;14.10;64.90;;;;;;5133431;28;20051;-67
2022/04/13 05:15:15;;;;;;;14.02;6.55;;;14.00;65.40;;;;;;5132471;28;20046;-67
2022/04/13 05:17:41;;;;;;;11.93;6.45;;;13.90;66.10;;;;;;5133398;28;20016;-67
2022/04/13 05:20:08;;;;;;;12.73;5.97;;;13.60;66.70;;;;;;5133383;28;20107;-67
2022/04/13 05:22:34;;;;;;;9.90;5.55;;;13.50;67.20;;;;;;5133359;28;20039;-67
2022/04/13 05:25:08;;;;;;;11.48;6.75;;;13.60;66.90;;;;;;5133347;28;20028;-67
2022/04/13 05:27:33;;;;;;;14.18;6.70;;;13.50;67.50;;;;;;5132322;28;20015;-68
2022/04/13 05:29:59;;;;;;;17.80;7.32;;;13.20;68.20;;;;;;5133241;28;20035;-67
2022/04/13 05:32:25;;;;;;;13.38;6.68;;;13.30;68.30;;;;;;5132548;28;20368;-67
2022/04/13 05:34:57;;;;;;;15.30;6.85;;;13.50;68.30;;;;;;5133224;28;20034;-68
2022/04/13 05:37:23;;;;;;;13.85;6.57;;;13.60;68.10;;;;;;5133323;28;20027;-67
2022/04/13 05:39:48;;;;;;;13.63;7.43;;;13.60;67.90;;;;;;5133664;28;20019;-67
2022/04/13 05:42:14;;;;;;;17.70;7.40;;;13.70;67.90;;;;;;5136721;28;20059;-68
2022/04/13 05:44:39;;;;;;;14.63;7.75;;;13.70;67.70;;;;;;5136860;28;20028;-67
2022/04/13 05:47:05;;;;;;;14.95;7.80;;;13.80;67.70;;;;;;5136827;28;20028;-68
2022/04/13 05:49:31;;;;;;;13.05;7.70;;;13.80;67.50;;;;;;5135762;28;20038;-67
2022/04/13 05:51:56;;;;;;;12.23;7.30;;;13.90;67.60;;;;;;5135687;28;20055;-67
2022/04/13 05:54:22;;;;;;;17.20;8.05;;;13.90;67.60;;;;;;5136691;28;20020;-69
2022/04/13 05:56:48;;;;;;;15.52;8.55;;;13.90;67.70;;;;;;5135742;28;20107;-68
2022/04/13 05:59:14;;;;;;;17.75;8.18;;;13.90;68.10;;;;;;5136602;28;20042;-68
2022/04/13 06:01:39;;;;;;;17.40;8.60;;;13.90;68.00;;;;;;5136563;28;20040;-68
2022/04/13 06:04:05;;;;;;;16.02;8.70;;;14.00;68.10;;;;;;5136515;28;20024;-68
2022/04/13 06:06:31;;;;;;;16.10;8.88;;;14.00;68.70;;;;;;5135442;28;20080;-68
2022/04/13 06:08:56;;;;;;;16.15;8.80;;;13.90;69.20;;;;;;5136358;28;20039;-68
2022/04/13 06:11:22;;;;;;;18.05;10.32;;;13.90;69.40;;;;;;5136333;28;20046;-67
2022/04/13 06:13:47;;;;;;;16.42;9.70;;;14.00;69.40;;;;;;5135563;28;20376;-68
2022/04/13 06:16:13;;;;;;;17.67;10.10;;;14.20;69.90;;;;;;5136255;28;20028;-68
2022/04/13 06:18:39;;;;;;;16.58;9.63;;;14.20;69.70;;;;;;5136321;28;20023;-67
2022/04/13 06:21:04;;;;;;;14.80;10.52;;;14.40;69.70;;;;;;5136182;28;20042;-67
2022/04/13 06:23:30;;;;;;;15.32;10.13;;;14.40;69.90;;;;;;5136072;28;20039;-68
2022/04/13 06:25:55;;;;;;;17.23;10.52;;;14.40;70.20;;;;;;5135123;28;20447;-68
2022/04/13 06:28:21;;;;;;;17.25;11.02;;;14.50;70.70;;;;;;5135988;28;20020;-68
2022/04/13 06:30:47;;;;;;;23.80;12.15;;;14.50;72.40;;;;;;5135915;28;20035;-68
2022/04/13 06:33:12;;;;;;;18.30;10.63;;;14.60;72.00;;;;;;5135926;28;20065;-68
2022/04/13 06:35:38;;;;;;;17.55;10.68;;;14.60;72.00;;;;;;5135793;28;20028;-68
2022/04/13 06:38:04;;;;;;;17.92;10.85;;;14.70;71.40;;;;;;5134824;28;20016;-68
2022/04/13 06:40:29;;;;;;;20.90;11.68;;;14.80;70.80;;;;;;5134476;28;20087;-69
2022/04/13 06:42:56;;;;;;;18.20;11.15;;;14.90;71.20;;;;;;5133771;28;20047;-69
2022/04/13 06:45:21;;;;;;;18.50;10.98;;;15.00;71.10;;;;;;5135736;28;20031;-70
2022/04/13 06:47:48;;;;;;;15.15;10.63;;;15.00;71.60;;;;;;5134594;28;20039;-70
2022/04/13 06:50:14;;;;;;;20.75;10.60;;;15.10;71.40;;;;;;5100790;28;20024;-70
2022/04/13 06:52:40;;;;;;;16.58;10.98;;;15.10;71.40;;;;;;5134769;28;20027;-70
2022/04/13 06:55:09;;;;;;;20.35;11.23;;;15.20;71.50;;;;;;5135337;28;20027;-71
2022/04/13 06:57:37;;;;;;;22.25;11.70;;;15.30;71.80;;;;;;5134865;28;20042;-70
2022/04/13 07:00:07;;;;;;;18.35;11.25;;;15.30;72.60;;;;;;5134382;28;20051;-70
2022/04/13 07:02:34;;;;;;;16.08;10.65;;;15.40;71.40;;;;;;5134676;28;20030;-70
2022/04/13 07:05:00;;;;;;;17.20;10.85;;;15.50;71.10;;;;;;5135323;28;20024;-70
2022/04/13 07:07:26;;;;;;;25.00;12.10;;;15.50;71.30;;;;;;5135400;28;20111;-70
2022/04/13 07:09:52;;;;;;;21.50;11.35;;;15.60;71.40;;;;;;5135254;28;20032;-68
2022/04/13 07:12:17;;;;;;;15.90;10.85;;;15.60;71.30;;;;;;5135125;28;20027;-69
2022/04/13 07:14:43;;;;;;;16.15;11.07;;;15.70;71.10;;;;;;5135092;28;20020;-69
2022/04/13 07:17:09;;;;;;;21.05;11.98;;;15.70;71.00;;;;;;5135074;28;20028;-68
2022/04/13 07:19:35;;;;;;;19.98;11.95;;;15.80;71.20;;;;;;5135004;28;20053;-69
2022/04/13 07:22:01;;;;;;;19.13;11.95;;;15.90;71.50;;;;;;5133932;28;20024;-69
2022/04/13 07:24:27;;;;;;;19.75;11.23;;;15.90;71.30;;;;;;5134046;28;20035;-69
2022/04/13 07:26:53;;;;;;;17.95;11.77;;;15.90;71.10;;;;;;5134865;28;20087;-68
2022/04/13 07:29:19;;;;;;;20.17;11.52;;;15.90;71.30;;;;;;5134683;28;20028;-69
2022/04/13 07:31:45;;;;;;;18.38;12.05;;;16.00;71.40;;;;;;5134689;28;20096;-69
2022/04/13 07:34:13;;;;;;;19.05;11.48;;;16.00;71.40;;;;;;5134708;28;20031;-68
2022/04/13 07:36:39;;;;;;;17.40;10.85;;;16.10;71.40;;;;;;5134712;28;20030;-68
2022/04/13 07:39:04;;;;;;;19.05;11.50;;;16.20;71.70;;;;;;5134651;28;20048;-69
2022/04/13 07:41:30;;;;;;;16.35;11.73;;;16.20;71.20;;;;;;5134516;28;20056;-70
2022/04/13 07:43:57;;;;;;;18.50;10.73;;;16.20;71.20;;;;;;5133572;28;20020;-68
2022/04/13 07:46:27;;;;;;;16.27;10.95;;;16.20;71.30;;;;;;5134121;28;20027;-68
2022/04/13 07:48:53;;;;;;;21.08;11.02;;;16.20;71.20;;;;;;5133831;28;20031;-68
2022/04/13 07:51:19;;;;;;;22.42;11.38;;;16.20;71.30;;;;;;5133713;27;20492;-70
2022/04/13 07:53:44;;;;;;;27.85;15.98;;;16.20;71.20;;;;;;5134372;28;20103;-67
2022/04/13 07:56:10;;;;;;;22.20;12.90;;;16.20;71.20;;;;;;5133437;28;20027;-68
2022/04/13 07:58:36;;;;;;;21.23;11.95;;;16.20;71.40;;;;;;5133234;28;20041;-67
2022/04/13 08:01:01;;;;;;;23.50;11.95;;;16.20;71.20;;;;;;5134294;28;20077;-70
2022/04/13 08:03:27;;;;;;;20.70;11.65;;;16.20;71.30;;;;;;5134215;28;20023;-68
2022/04/13 08:05:52;;;;;;;25.15;12.82;;;16.20;71.40;;;;;;5134181;28;20063;-68
2022/04/13 08:08:18;;;;;;;18.60;11.50;;;16.20;71.50;;;;;;5133812;28;20143;-68
2022/04/13 08:10:45;;;;;;;20.42;11.52;;;16.20;71.60;;;;;;5133111;28;20028;-69
2022/04/13 08:13:10;;;;;;;19.52;11.70;;;16.20;71.40;;;;;;5134217;28;20020;-69
2022/04/13 08:15:36;;;;;;;18.67;11.23;;;16.30;71.70;;;;;;5133058;28;20039;-69
2022/04/13 08:18:02;;;;;;;21.88;11.50;;;16.30;71.50;;;;;;5133034;28;20019;-69
2022/04/13 08:20:28;;;;;;;17.65;11.50;;;16.30;71.50;;;;;;5133897;28;20372;-69
2022/04/13 08:22:53;;;;;;;19.20;11.60;;;16.30;71.50;;;;;;5133978;28;20418;-69
2022/04/13 08:25:19;;;;;;;19.27;11.30;;;16.30;71.30;;;;;;5134047;28;20529;-69
2022/04/13 08:27:45;;;;;;;22.42;12.00;;;16.30;71.20;;;;;;5133804;28;20028;-69
2022/04/13 08:30:11;;;;;;;25.02;12.43;;;16.40;71.60;;;;;;5133837;28;20083;-69
2022/04/13 08:32:37;;;;;;;18.90;11.23;;;16.40;71.20;;;;;;5133808;28;20035;-70
2022/04/13 08:35:05;;;;;;;20.08;12.15;;;16.40;71.30;;;;;;5133874;28;20365;-70
2022/04/13 08:37:32;;;;;;;20.00;11.32;;;16.40;71.30;;;;;;5133809;28;20020;-70
2022/04/13 08:39:58;;;;;;;18.70;10.35;;;16.40;71.10;;;;;;5133787;28;20028;-70
2022/04/13 08:42:37;;;;;;;15.68;10.23;;;16.40;71.40;;;;;;5132560;28;20123;-70
2022/04/13 08:45:22;;;;;;;18.92;10.07;;;16.50;70.90;;;;;;5133919;28;20043;-70
2022/04/13 08:47:49;;;;;;;19.55;10.15;;;16.60;71.10;;;;;;5133703;28;20053;-70
2022/04/13 08:50:17;;;;;;;17.38;10.23;;;16.60;70.80;;;;;;5133664;28;20048;-70
2022/04/13 08:52:49;;;;;;;21.08;11.05;;;16.70;70.50;;;;;;5133625;28;20015;-70
2022/04/13 08:55:16;;;;;;;;;;;16.70;70.30;;;;;;5134129;28;20024;-69
2022/04/13 08:57:50;;;;;;;15.07;8.77;;;16.70;69.90;;;;;;5133604;28;20384;-70
2022/04/13 09:00:21;;;;;;;16.05;9.57;;;16.70;70.20;;;;;;5132539;28;20563;-70
2022/04/13 09:03:11;;;;;;;16.77;10.25;;;16.80;70.00;;;;;;5133560;28;20039;-69
2022/04/13 09:05:38;;;;;;;20.13;9.45;;;16.80;69.90;;;;;;5132496;28;20038;-69
2022/04/13 09:08:21;;;;;;;18.40;9.85;;;17.00;70.10;;;;;;5133534;28;20016;-68
2022/04/13 09:10:48;;;;;;;15.32;9.48;;;17.00;70.00;;;;;;5133407;28;20083;-69
2022/04/13 09:13:15;;;;;;;18.83;10.15;;;17.00;69.60;;;;;;5133479;28;20027;-69
2022/04/13 09:15:42;;;;;;;15.30;9.38;;;17.10;69.50;;;;;;5135390;28;20043;-69
2022/04/13 09:18:09;;;;;;;18.15;9.85;;;17.10;69.50;;;;;;5137443;27;20050;-70
2022/04/13 09:20:36;;;;;;;16.52;9.38;;;17.20;69.30;;;;;;5137375;28;20054;-69
2022/04/13 09:23:02;;;;;;;17.27;8.65;;;17.30;69.50;;;;;;5136339;28;20023;-67
2022/04/13 09:25:30;;;;;;;15.55;9.77;;;17.30;68.70;;;;;;5136980;28;20020;-67
2022/04/13 09:27:58;;;;;;;14.38;8.52;;;17.30;68.70;;;;;;5136943;28;20027;-66
2022/04/13 09:30:24;;;;;;;16.58;8.60;;;17.30;68.00;;;;;;5136855;28;20020;-69
2022/04/13 09:32:50;;;;;;;12.75;8.55;;;17.30;67.70;;;;;;5136904;28;20042;-69
2022/04/13 09:35:16;;;;;;;16.52;8.88;;;17.30;67.70;;;;;;5136843;28;20020;-69
2022/04/13 09:37:43;;;;;;;13.82;8.23;;;17.30;67.70;;;;;;5136900;27;20019;-69
2022/04/13 09:40:10;;;;;;;14.18;8.93;;;17.40;67.80;;;;;;5136796;28;20020;-69
2022/04/13 09:42:36;;;;;;;14.75;8.98;;;17.40;67.70;;;;;;5136562;28;20099;-69
2022/04/13 09:45:03;;;;;;;11.18;7.85;;;17.40;68.50;;;;;;5136684;28;20049;-69
2022/04/13 09:47:31;;;;;;;10.75;7.18;;;17.40;67.70;;;;;;5136731;28;20035;-69
2022/04/13 09:49:57;;;;;;;12.45;7.60;;;17.50;67.20;;;;;;5136520;28;20031;-68
2022/04/13 09:52:39;;;;;;;15.68;9.70;;;17.50;68.40;;;;;;5136604;28;20026;-68
2022/04/13 09:55:06;;;;;;;16.60;9.73;;;17.60;67.50;;;;;;5136559;28;20020;-68
2022/04/13 09:57:32;;;;;;;18.00;10.02;;;17.60;67.50;;;;;;5135581;28;20069;-68
2022/04/13 10:00:01;;;;;;;17.30;10.45;;;17.70;68.00;;;;;;5135081;28;20047;-69
2022/04/13 10:02:43;;;;;;;19.48;11.35;;;17.70;67.60;;;;;;5135868;28;20101;-68
2022/04/13 10:05:30;;;;;;;18.38;9.57;;;17.70;67.80;;;;;;5135894;28;20028;-69
2022/04/13 10:08:08;;;;;;;15.10;9.48;;;17.70;67.80;;;;;;5135507;28;20059;-68
2022/04/13 10:10:34;;;;;;;15.70;9.85;;;17.70;67.10;;;;;;5135892;27;20343;-69
2022/04/13 10:13:00;;;;;;;14.95;9.23;;;17.70;67.50;;;;;;5135849;28;20019;-67
2022/04/13 10:15:26;;;;;;;13.98;9.38;;;17.50;67.30;;;;;;5136053;28;20391;-68
2022/04/13 10:17:58;;;;;;;16.98;9.07;;;17.50;66.90;;;;;;5136026;28;20031;-68
2022/04/13 10:20:27;;;;;;;17.50;9.57;;;17.40;67.20;;;;;;5135829;28;20031;-68
2022/04/13 10:23:01;;;;;;;14.93;9.88;;;17.40;67.70;;;;;;5134113;28;20045;-68
2022/04/13 10:25:27;;;;;;;14.40;10.00;;;17.40;67.40;;;;;;5135905;28;20043;-68
2022/04/13 10:27:58;;;;;;;16.63;10.35;;;17.30;68.00;;;;;;5134412;28;20023;-68
2022/04/13 10:30:28;;;;;;;15.80;10.02;;;17.30;68.10;;;;;;5135696;28;20028;-68
2022/04/13 10:33:05;;;;;;;17.90;9.95;;;17.30;68.10;;;;;;5135740;28;20046;-68
2022/04/13 10:35:36;;;;;;;15.57;9.63;;;17.30;68.30;;;;;;5135683;28;20084;-68
2022/04/13 10:38:03;;;;;;;14.95;9.40;;;17.30;68.10;;;;;;5135635;28;20023;-68
2022/04/13 10:40:49;;;;;;;15.02;9.40;;;17.30;68.30;;;;;;5135508;28;20020;-68
2022/04/13 10:43:16;;;;;;;16.33;10.60;;;17.30;68.30;;;;;;5135329;28;20048;-69
2022/04/13 10:45:46;;;;;;;21.17;10.85;;;17.30;68.40;;;;;;5135512;28;20030;-68
2022/04/13 10:48:21;;;;;;;21.00;11.10;;;17.40;68.40;;;;;;5134500;28;20043;-68
2022/04/13 10:51:09;;;;;;;21.08;11.02;;;17.40;68.20;;;;;;5135345;28;20030;-67
2022/04/13 10:53:52;;;;;;;19.23;10.43;;;17.40;68.10;;;;;;5135263;27;20027;-68
2022/04/13 10:56:20;;;;;;;21.13;11.02;;;17.40;67.80;;;;;;5135306;28;20036;-68
2022/04/13 10:59:14;;;;;;;18.63;11.02;;;17.30;68.70;;;;;;5135199;28;20095;-68
2022/04/13 11:01:46;;;;;;;18.30;10.25;;;17.30;69.00;;;;;;5135243;28;20028;-67
2022/04/13 11:04:12;;;;;;;19.45;11.45;;;17.30;69.20;;;;;;5135180;28;20016;-67
2022/04/13 11:06:40;;;;;;;22.05;11.95;;;17.30;68.80;;;;;;5135033;28;20031;-68
2022/04/13 11:09:29;;;;;;;20.20;11.35;;;17.30;69.00;;;;;;5135029;28;20023;-68
2022/04/13 11:11:57;;;;;;;20.05;11.65;;;17.30;68.80;;;;;;5134991;27;20031;-67
2022/04/13 11:14:24;;;;;;;18.55;11.65;;;17.40;68.60;;;;;;5134901;28;20023;-67
2022/04/13 11:17:05;;;;;;;17.80;11.57;;;17.40;68.40;;;;;;5134849;28;20027;-67
2022/04/13 11:19:30;;;;;;;17.27;11.43;;;17.40;68.50;;;;;;5134722;28;20028;-67
2022/04/13 11:21:59;;;;;;;22.17;11.88;;;17.40;68.60;;;;;;5134676;28;20026;-67
2022/04/13 11:24:35;;;;;;;19.05;12.15;;;17.40;68.90;;;;;;5134701;28;20046;-68
2022/04/13 11:27:01;;;;;;;18.75;12.50;;;17.50;69.80;;;;;;5134632;28;20031;-68
2022/04/13 11:29:34;;;;;;;19.98;13.15;;;17.50;69.30;;;;;;5134441;28;20031;-68
2022/04/13 11:31:59;;;;;;;;;;;17.50;69.10;;;;;;5134991;28;20023;-68
2022/04/13 11:34:45;;;;;;;20.23;13.48;;;17.40;69.00;;;;;;5134566;28;19959;-68
2022/04/13 11:37:11;;;;;;;18.98;12.45;;;17.40;69.40;;;;;;5134611;28;20020;-68
2022/04/13 11:39:48;;;;;;;23.45;13.65;;;17.40;69.20;;;;;;5134091;28;20050;-68
2022/04/13 11:42:15;;;;;;;18.83;13.45;;;17.40;68.90;;;;;;5134271;28;20121;-68
2022/04/13 11:44:48;;;;;;;20.58;12.52;;;17.40;69.50;;;;;;5134303;28;20057;-67
2022/04/13 11:47:18;;;;;;;20.98;11.95;;;17.50;69.20;;;;;;5134322;28;20102;-66
2022/04/13 11:50:00;;;;;;;18.60;11.45;;;17.50;69.00;;;;;;5134197;28;20024;-67
2022/04/13 11:52:51;;;;;;;23.63;12.77;;;17.40;69.10;;;;;;5134337;28;20024;-67
2022/04/13 11:55:21;;;;;;;16.23;11.38;;;17.40;68.80;;;;;;5134317;28;20027;-68
2022/04/13 11:58:09;;;;;;;16.00;11.27;;;17.40;69.10;;;;;;5132986;28;20035;-66
2022/04/13 12:01:00;;;;;;;16.05;11.10;;;17.40;69.10;;;;;;5134108;28;20057;-66
2022/04/13 12:03:30;;;;;;;19.88;11.30;;;17.40;69.10;;;;;;5132929;28;20101;-66
2022/04/13 12:05:55;;;;;;;18.38;11.30;;;17.40;69.20;;;;;;5133924;28;20020;-66
2022/04/13 12:08:27;;;;;;;16.48;10.82;;;17.40;68.90;;;;;;5133864;28;20020;-66
2022/04/13 12:11:05;;;;;;;16.33;10.85;;;17.40;69.70;;;;;;5133913;28;20071;-66
2022/04/13 12:13:51;;;;;;;19.30;11.18;;;17.40;68.90;;;;;;5133823;28;20016;-67
2022/04/13 12:16:28;;;;;;;15.38;10.65;;;17.50;69.10;;;;;;5133943;28;20023;-67
2022/04/13 12:19:00;;;;;;;17.08;10.30;;;17.50;69.00;;;;;;5133836;28;20028;-66
2022/04/13 12:21:29;;;;;;;16.52;9.60;;;17.40;68.70;;;;;;5133781;28;20027;-66
2022/04/13 12:23:55;;;;;;;16.98;10.25;;;17.40;68.60;;;;;;5133700;28;20094;-66
2022/04/13 12:26:36;;;;;;;16.77;10.23;;;17.40;68.90;;;;;;5133697;28;20476;-67
2022/04/13 12:29:15;;;;;;;17.60;10.25;;;17.50;68.70;;;;;;5133572;28;20028;-67
2022/04/13 12:31:56;;;;;;;19.20;10.95;;;17.40;68.80;;;;;;5132541;28;20035;-67
2022/04/13 12:34:26;;;;;;;20.63;11.05;;;17.50;69.20;;;;;;5133569;28;20023;-67
2022/04/13 12:37:00;;;;;;;14.60;9.68;;;17.60;69.40;;;;;;5133576;28;20024;-68
2022/04/13 12:39:35;;;;;;;12.80;8.90;;;17.50;68.70;;;;;;5133528;28;20020;-67
2022/04/13 12:42:01;;;;;;;9.32;7.07;;;17.60;69.10;;;;;;5133169;28;20061;-68
2022/04/13 12:44:29;;;;;;;11.82;7.10;;;17.60;68.60;;;;;;5133465;28;20028;-67